createdAt,value
2022-09-27T00:02:24.502Z,11.84
2022-09-27T00:04:52.840Z,11.94
2022-09-27T00:07:20.359Z,11.80
2022-09-27T00:09:47.912Z,11.64
2022-09-27T00:12:15.418Z,11.69
2022-09-27T00:14:42.984Z,11.74
2022-09-27T00:17:11.944Z,11.83
2022-09-27T00:19:39.474Z,11.94
2022-09-27T00:22:07.002Z,11.89
2022-09-27T00:24:34.615Z,11.88
2022-09-27T00:27:02.149Z,11.70
2022-09-27T00:29:29.851Z,11.67
2022-09-27T00:31:57.396Z,11.71
2022-09-27T00:34:27.141Z,11.85
2022-09-27T00:36:55.444Z,11.85
2022-09-27T00:39:22.993Z,11.58
2022-09-27T00:41:50.762Z,11.61
2022-09-27T00:45:00.594Z,11.54
2022-09-27T00:47:34.298Z,11.49
2022-09-27T00:50:08.878Z,11.71
2022-09-27T00:52:44.170Z,11.68
2022-09-27T00:55:17.223Z,11.74
2022-09-27T00:57:46.941Z,11.44
2022-09-27T01:00:16.256Z,11.56
2022-09-27T01:02:46.604Z,11.67
2022-09-27T01:05:18.611Z,11.48
2022-09-27T01:07:46.190Z,11.22
2022-09-27T01:10:14.317Z,11.40
2022-09-27T01:12:52.645Z,11.27
2022-09-27T01:15:27.599Z,11.45
2022-09-27T01:18:09.711Z,11.55
2022-09-27T01:21:04.086Z,11.57
2022-09-27T01:23:49.114Z,11.28
2022-09-27T01:26:27.103Z,11.29
2022-09-27T01:29:05.075Z,11.27
2022-09-27T01:31:40.973Z,11.29
2022-09-27T01:34:17.120Z,11.30
2022-09-27T01:36:50.862Z,11.25
2022-09-27T01:39:29.322Z,11.15
2022-09-27T01:42:03.828Z,11.29
2022-09-27T01:44:36.192Z,11.36
2022-09-27T01:47:11.666Z,11.31
2022-09-27T01:49:47.117Z,11.41
2022-09-27T01:52:18.054Z,11.52
2022-09-27T01:54:50.254Z,11.45
2022-09-27T01:57:23.354Z,11.30
2022-09-27T01:59:55.886Z,11.52
2022-09-27T02:02:28.257Z,11.54
2022-09-27T02:04:59.399Z,11.42
2022-09-27T02:07:33.623Z,11.40
2022-09-27T02:10:06.787Z,11.52
2022-09-27T02:12:40.944Z,11.52
2022-09-27T02:15:11.879Z,11.52
2022-09-27T02:17:45.766Z,11.46
2022-09-27T02:20:19.517Z,11.52
2022-09-27T02:22:52.114Z,11.23
2022-09-27T02:25:24.891Z,11.40
2022-09-27T02:27:58.499Z,11.35
2022-09-27T02:30:26.105Z,11.46
2022-09-27T02:32:55.348Z,11.52
2022-09-27T02:35:26.396Z,11.55
2022-09-27T02:37:54.956Z,11.50
2022-09-27T02:40:22.969Z,11.50
2022-09-27T02:42:50.670Z,11.39
2022-09-27T02:45:20.445Z,11.37
2022-09-27T02:48:04.011Z,11.41
2022-09-27T02:51:07.727Z,11.46
2022-09-27T02:53:43.001Z,11.54
2022-09-27T02:56:17.343Z,11.44
2022-09-27T02:58:55.469Z,11.46
2022-09-27T03:01:32.890Z,11.44
2022-09-27T03:04:09.002Z,11.48
2022-09-27T03:06:38.400Z,11.40
2022-09-27T03:09:05.920Z,11.40
2022-09-27T03:11:33.538Z,11.43
2022-09-27T03:14:08.778Z,11.43
2022-09-27T03:16:36.999Z,11.42
2022-09-27T03:19:05.928Z,11.32
2022-09-27T03:21:33.581Z,11.35
2022-09-27T03:24:01.206Z,11.37
2022-09-27T03:26:28.786Z,11.38
2022-09-27T03:28:56.509Z,11.42
2022-09-27T03:31:24.114Z,11.47
2022-09-27T03:33:51.690Z,11.39
2022-09-27T03:36:20.569Z,11.38
2022-09-27T03:38:48.091Z,11.44
2022-09-27T03:41:15.646Z,11.47
2022-09-27T03:43:43.201Z,11.47
2022-09-27T03:46:10.839Z,11.47
2022-09-27T03:48:38.439Z,11.33
2022-09-27T03:51:06.101Z,11.12
2022-09-27T03:53:35.034Z,11.24
2022-09-27T03:56:03.094Z,11.17
2022-09-27T03:58:30.730Z,11.23
2022-09-27T04:00:58.369Z,11.31
2022-09-27T04:03:26.986Z,11.38
2022-09-27T04:05:55.031Z,11.40
2022-09-27T04:08:23.691Z,11.39
2022-09-27T04:10:52.569Z,11.41
2022-09-27T04:13:20.502Z,11.16
2022-09-27T04:15:52.015Z,11.15
2022-09-27T04:18:19.993Z,11.11
2022-09-27T04:20:47.586Z,11.13
2022-09-27T04:23:15.129Z,10.76
2022-09-27T04:25:42.653Z,10.57
2022-09-27T04:28:11.740Z,10.59
2022-09-27T04:30:39.337Z,10.50
2022-09-27T04:33:06.903Z,10.29
2022-09-27T04:36:03.468Z,10.38
2022-09-27T04:38:31.067Z,10.44
2022-09-27T04:41:02.089Z,10.21
2022-09-27T04:43:31.071Z,10.42
2022-09-27T04:45:58.653Z,10.35
2022-09-27T04:48:26.235Z,10.60
2022-09-27T04:50:58.274Z,10.70
2022-09-27T04:53:26.163Z,10.59
2022-09-27T04:55:54.638Z,10.65
2022-09-27T04:58:22.260Z,10.75
2022-09-27T05:00:54.544Z,10.68
2022-09-27T05:03:22.225Z,10.51
2022-09-27T05:05:49.810Z,10.77
2022-09-27T05:08:17.677Z,10.63
2022-09-27T05:10:45.203Z,10.80
2022-09-27T05:13:13.111Z,10.96
2022-09-27T05:15:40.672Z,10.68
2022-09-27T05:18:10.457Z,10.91
2022-09-27T05:20:38.116Z,10.96
2022-09-27T05:23:05.731Z,10.87
2022-09-27T05:25:33.886Z,10.82
2022-09-27T05:28:01.726Z,10.90
2022-09-27T05:30:29.563Z,10.81
2022-09-27T05:32:57.231Z,10.69
2022-09-27T05:35:33.954Z,10.67
2022-09-27T05:38:01.857Z,10.87
2022-09-27T05:40:41.259Z,10.95
2022-09-27T05:43:09.428Z,10.89
2022-09-27T05:45:37.027Z,10.86
2022-09-27T05:48:05.257Z,10.94
2022-09-27T05:50:34.160Z,10.95
2022-09-27T05:53:01.688Z,10.76
2022-09-27T05:55:29.764Z,10.64
2022-09-27T05:57:59.104Z,10.74
2022-09-27T06:00:28.258Z,10.86
2022-09-27T06:02:57.248Z,10.70
2022-09-27T06:05:26.398Z,10.75
2022-09-27T06:08:00.265Z,10.80
2022-09-27T06:10:28.238Z,10.89
2022-09-27T06:13:01.158Z,10.87
2022-09-27T06:15:29.117Z,10.85
2022-09-27T06:17:56.708Z,10.80
2022-09-27T06:20:24.413Z,10.87
2022-09-27T06:22:54.046Z,10.52
2022-09-27T06:25:22.919Z,10.45
2022-09-27T06:27:50.425Z,10.58
2022-09-27T06:30:20.307Z,10.41
2022-09-27T06:32:48.166Z,10.52
2022-09-27T06:35:15.914Z,10.53
2022-09-27T06:37:43.425Z,10.35
2022-09-27T06:40:11.338Z,10.53
2022-09-27T06:42:40.277Z,10.52
2022-09-27T06:45:08.647Z,10.34
2022-09-27T06:47:36.702Z,10.32
2022-09-27T06:50:06.492Z,10.25
2022-09-27T06:52:35.029Z,10.27
2022-09-27T06:55:02.730Z,10.18
2022-09-27T06:57:47.888Z,10.23
2022-09-27T07:00:26.831Z,10.07
2022-09-27T07:03:00.956Z,9.68
2022-09-27T07:05:29.721Z,9.84
2022-09-27T07:07:58.010Z,9.90
2022-09-27T07:10:26.759Z,10.08
2022-09-27T07:12:54.957Z,10.09
2022-09-27T07:15:23.810Z,9.87
2022-09-27T07:17:57.957Z,10.18
2022-09-27T07:20:25.778Z,10.01
2022-09-27T07:22:53.797Z,10.07
2022-09-27T07:25:21.318Z,9.96
2022-09-27T07:27:48.846Z,9.89
2022-09-27T07:30:17.366Z,10.17
2022-09-27T07:32:46.705Z,10.22
2022-09-27T07:35:15.472Z,9.95
2022-09-27T07:37:45.007Z,10.01
2022-09-27T07:40:13.053Z,9.96
2022-09-27T07:42:41.189Z,9.96
2022-09-27T07:45:11.326Z,10.02
2022-09-27T07:47:39.611Z,9.98
2022-09-27T07:50:10.621Z,10.24
2022-09-27T07:52:41.431Z,10.39
2022-09-27T07:55:10.596Z,10.34
2022-09-27T07:57:38.270Z,10.39
2022-09-27T08:00:07.858Z,10.29
2022-09-27T08:02:35.464Z,10.54
2022-09-27T08:05:04.464Z,10.33
2022-09-27T08:07:33.728Z,10.43
2022-09-27T08:10:01.323Z,10.23
2022-09-27T08:12:28.887Z,10.29
2022-09-27T08:14:58.549Z,10.33
2022-09-27T08:17:26.115Z,10.35
2022-09-27T08:19:53.712Z,10.32
2022-09-27T08:22:21.796Z,10.27
2022-09-27T08:24:50.888Z,10.18
2022-09-27T08:27:18.863Z,10.39
2022-09-27T08:29:47.906Z,10.45
2022-09-27T08:32:22.144Z,10.57
2022-09-27T08:34:50.746Z,10.69
2022-09-27T08:37:18.243Z,10.72
2022-09-27T08:39:48.052Z,10.59
2022-09-27T08:42:29.084Z,10.41
2022-09-27T08:45:04.108Z,10.37
2022-09-27T08:47:38.718Z,10.40
2022-09-27T08:50:19.083Z,10.39
2022-09-27T08:52:53.517Z,10.41
2022-09-27T08:55:26.031Z,10.31
2022-09-27T08:57:57.963Z,10.25
2022-09-27T09:00:29.699Z,10.22
2022-09-27T09:02:58.497Z,10.01
2022-09-27T09:05:30.306Z,10.04
2022-09-27T09:08:12.166Z,10.23
2022-09-27T09:11:16.762Z,10.35
2022-09-27T09:14:09.202Z,10.31
2022-09-27T09:16:50.734Z,10.24
2022-09-27T09:19:45.607Z,10.11
2022-09-27T09:22:28.971Z,10.29
2022-09-27T09:25:16.095Z,10.51
2022-09-27T09:27:50.589Z,10.41
2022-09-27T09:30:23.298Z,10.46
2022-09-27T09:33:09.517Z,10.66
2022-09-27T09:35:42.750Z,10.42
2022-09-27T09:38:16.238Z,10.73
2022-09-27T09:40:49.769Z,10.76
2022-09-27T09:43:21.322Z,10.62
2022-09-27T09:45:56.148Z,10.71
2022-09-27T09:48:31.255Z,10.42
2022-09-27T09:51:02.025Z,10.49
2022-09-27T09:53:41.682Z,10.70
2022-09-27T09:56:15.856Z,10.61
2022-09-27T09:58:48.884Z,10.89
2022-09-27T10:01:22.051Z,10.71
2022-09-27T10:03:50.170Z,10.65
2022-09-27T10:06:19.199Z,10.57
2022-09-27T10:08:47.496Z,10.54
2022-09-27T10:11:22.419Z,10.58
2022-09-27T10:13:50.193Z,10.58
2022-09-27T10:16:21.170Z,10.71
2022-09-27T10:18:50.565Z,10.76
2022-09-27T10:21:22.780Z,10.68
2022-09-27T10:24:05.606Z,10.54
2022-09-27T10:26:34.428Z,10.35
2022-09-27T10:29:16.440Z,10.56
2022-09-27T10:31:47.923Z,10.60
2022-09-27T10:34:21.884Z,10.79
2022-09-27T10:37:04.026Z,10.57
2022-09-27T10:39:31.834Z,10.67
2022-09-27T10:41:59.369Z,10.74
2022-09-27T10:44:29.044Z,10.73
2022-09-27T10:47:02.146Z,10.54
2022-09-27T10:49:33.467Z,10.33
2022-09-27T10:52:04.015Z,9.98
2022-09-27T10:54:34.819Z,9.93
2022-09-27T10:57:05.289Z,10.07
2022-09-27T10:59:37.132Z,10.15
2022-09-27T11:02:07.508Z,10.17
2022-09-27T11:04:37.467Z,10.26
2022-09-27T11:07:16.935Z,10.57
2022-09-27T11:09:52.807Z,10.50
2022-09-27T11:12:22.802Z,10.40
2022-09-27T11:14:56.657Z,10.40
2022-09-27T11:17:33.757Z,10.65
2022-09-27T11:20:15.373Z,10.54
2022-09-27T11:23:05.047Z,10.41
2022-09-27T11:25:40.034Z,10.26
2022-09-27T11:28:19.138Z,10.34
2022-09-27T11:30:54.101Z,10.39
2022-09-27T11:33:37.472Z,10.54
2022-09-27T11:36:13.712Z,10.49
2022-09-27T11:39:01.753Z,10.64
2022-09-27T11:41:43.088Z,10.88
2022-09-27T11:44:26.833Z,10.86
2022-09-27T11:47:02.795Z,10.45
2022-09-27T11:49:47.074Z,10.20
2022-09-27T11:52:36.648Z,10.34
2022-09-27T11:55:20.426Z,10.30
2022-09-27T11:57:53.365Z,10.27
2022-09-27T12:00:24.323Z,10.22
2022-09-27T12:03:22.997Z,10.19
2022-09-27T12:06:07.527Z,10.42
2022-09-27T12:08:48.917Z,10.75
2022-09-27T12:11:21.461Z,11.04
2022-09-27T12:13:53.887Z,11.12
2022-09-27T12:16:23.627Z,11.02
2022-09-27T12:18:53.491Z,10.84
2022-09-27T12:21:23.551Z,10.94
2022-09-27T12:23:55.090Z,11.03
2022-09-27T12:26:27.077Z,11.14
2022-09-27T12:28:58.177Z,11.15
2022-09-27T12:31:31.433Z,11.20
2022-09-27T12:34:08.680Z,11.19
2022-09-27T12:36:44.240Z,11.23
2022-09-27T12:39:19.497Z,11.05
2022-09-27T12:41:52.952Z,11.12
2022-09-27T12:44:20.638Z,11.15
2022-09-27T12:47:00.736Z,10.92
2022-09-27T12:49:35.835Z,10.87
2022-09-27T12:52:09.307Z,10.94
2022-09-27T12:55:08.167Z,10.75
2022-09-27T12:57:44.787Z,10.90
2022-09-27T13:00:19.368Z,10.67
2022-09-27T13:03:18.689Z,10.67
2022-09-27T13:06:08.770Z,10.66
2022-09-27T13:08:54.335Z,10.62
2022-09-27T13:11:26.435Z,10.59
2022-09-27T13:13:57.562Z,10.91
2022-09-27T13:16:26.729Z,10.85
2022-09-27T13:19:01.384Z,10.78
2022-09-27T13:21:59.587Z,10.49
2022-09-27T13:24:47.087Z,10.41
2022-09-27T13:27:36.903Z,10.52
2022-09-27T13:30:48.079Z,10.81
2022-09-27T13:33:36.196Z,10.73
2022-09-27T13:36:22.810Z,10.73
2022-09-27T13:39:01.217Z,10.77
2022-09-27T13:41:43.666Z,10.77
2022-09-27T13:44:22.901Z,10.98
2022-09-27T13:46:55.427Z,10.73
2022-09-27T13:49:29.144Z,10.90
2022-09-27T13:52:01.668Z,10.95
2022-09-27T13:54:52.715Z,10.84
2022-09-27T13:57:45.187Z,10.66
2022-09-27T14:00:17.420Z,10.74
2022-09-27T14:02:56.753Z,10.81
2022-09-27T14:05:28.604Z,10.78
2022-09-27T14:07:59.738Z,10.87
2022-09-27T14:10:29.961Z,10.73
2022-09-27T14:13:02.138Z,10.80
2022-09-27T14:15:32.689Z,10.93
2022-09-27T14:18:00.519Z,10.97
2022-09-27T14:20:33.667Z,11.08
2022-09-27T14:23:02.266Z,11.00
2022-09-27T14:25:30.303Z,11.15
2022-09-27T14:28:00.424Z,10.99
2022-09-27T14:30:30.134Z,11.00
2022-09-27T14:33:00.578Z,10.99
2022-09-27T14:35:48.070Z,11.02
2022-09-27T14:38:36.616Z,11.15
2022-09-27T14:41:08.334Z,10.98
2022-09-27T14:43:43.759Z,11.00
2022-09-27T14:46:26.748Z,10.97
2022-09-27T14:48:55.420Z,10.98
2022-09-27T14:51:28.591Z,10.80
2022-09-27T14:54:00.582Z,10.93
2022-09-27T14:56:32.165Z,10.84
2022-09-27T14:59:06.468Z,10.86
2022-09-27T15:01:35.072Z,10.91
2022-09-27T15:04:07.006Z,10.80
2022-09-27T15:06:36.624Z,10.83
2022-09-27T15:09:05.192Z,11.03
2022-09-27T15:11:34.755Z,10.99
2022-09-27T15:14:05.713Z,10.98
2022-09-27T15:16:33.503Z,11.07
2022-09-27T15:19:03.465Z,11.08
2022-09-27T15:21:32.460Z,11.03
2022-09-27T15:24:02.661Z,11.00
2022-09-27T15:26:37.556Z,10.93
2022-09-27T15:29:07.016Z,10.97
2022-09-27T15:31:36.802Z,10.67
2022-09-27T15:34:06.112Z,10.90
2022-09-27T15:36:54.021Z,10.96
2022-09-27T15:39:29.237Z,10.90
2022-09-27T15:42:08.875Z,10.99
2022-09-27T15:44:44.983Z,10.81
2022-09-27T15:47:48.287Z,10.86
2022-09-27T15:50:36.081Z,10.74
2022-09-27T15:53:06.624Z,10.76
2022-09-27T15:55:37.202Z,10.91
2022-09-27T15:58:08.193Z,10.89
2022-09-27T16:00:37.262Z,10.82
2022-09-27T16:03:05.251Z,10.65
2022-09-27T16:05:33.196Z,10.76
2022-09-27T16:08:01.126Z,10.77
2022-09-27T16:10:36.930Z,10.88
2022-09-27T16:13:04.469Z,10.72
2022-09-27T16:15:32.114Z,10.77
2022-09-27T16:18:01.036Z,10.75
2022-09-27T16:20:29.103Z,10.76
2022-09-27T16:22:57.699Z,10.59
2022-09-27T16:25:26.191Z,10.77
2022-09-27T16:27:53.733Z,10.77
2022-09-27T16:30:21.635Z,10.81
2022-09-27T16:32:50.050Z,10.82
2022-09-27T16:35:22.918Z,10.92
2022-09-27T16:37:50.741Z,11.02
2022-09-27T16:40:19.542Z,11.06
2022-09-27T16:42:49.659Z,10.74
2022-09-27T16:45:19.474Z,10.89
2022-09-27T16:47:47.606Z,10.94
2022-09-27T16:50:33.399Z,10.99
2022-09-27T16:53:02.320Z,11.05
2022-09-27T16:55:30.304Z,11.03
2022-09-27T16:57:59.628Z,10.97
2022-09-27T17:00:27.836Z,10.95
2022-09-27T17:02:55.607Z,11.02
2022-09-27T17:05:23.509Z,10.93
2022-09-27T17:07:51.854Z,10.96
2022-09-27T17:10:21.903Z,10.84
2022-09-27T17:12:49.743Z,10.82
2022-09-27T17:15:17.955Z,10.92
2022-09-27T17:17:49.300Z,10.94
2022-09-27T17:20:17.336Z,10.88
2022-09-27T17:22:44.900Z,10.85
2022-09-27T17:25:12.456Z,10.82
2022-09-27T17:27:41.334Z,10.83
2022-09-27T17:30:09.792Z,10.74
2022-09-27T17:32:38.503Z,10.62
2022-09-27T17:35:09.731Z,10.56
2022-09-27T17:37:37.412Z,10.59
2022-09-27T17:40:06.110Z,10.18
2022-09-27T17:42:34.849Z,10.39
2022-09-27T17:45:04.001Z,10.48
2022-09-27T17:47:49.032Z,10.49
2022-09-27T17:50:27.084Z,10.57
2022-09-27T17:52:55.379Z,10.51
2022-09-27T17:55:23.879Z,10.54
2022-09-27T17:57:52.147Z,10.50
2022-09-27T18:00:21.538Z,10.43
2022-09-27T18:02:49.405Z,10.31
2022-09-27T18:05:21.056Z,10.25
2022-09-27T18:07:48.620Z,10.32
2022-09-27T18:10:17.654Z,10.42
2022-09-27T18:12:45.343Z,10.34
2022-09-27T18:15:13.120Z,10.43
2022-09-27T18:17:43.310Z,10.35
2022-09-27T18:20:11.345Z,10.46
2022-09-27T18:22:38.862Z,10.27
2022-09-27T18:25:07.376Z,10.43
2022-09-27T18:27:34.862Z,10.33
2022-09-27T18:30:03.424Z,10.39
2022-09-27T18:32:30.992Z,10.47
2022-09-27T18:34:59.894Z,10.55
2022-09-27T18:37:27.518Z,10.69
2022-09-27T18:39:55.630Z,10.34
2022-09-27T18:42:23.193Z,10.55
2022-09-27T18:44:50.970Z,10.33
2022-09-27T18:47:18.670Z,10.49
2022-09-27T18:49:46.216Z,10.62
2022-09-27T18:52:15.065Z,10.62
2022-09-27T18:54:43.610Z,10.67
2022-09-27T18:57:11.178Z,10.69
2022-09-27T18:59:38.713Z,10.74
2022-09-27T19:02:06.267Z,10.72
2022-09-27T19:04:34.016Z,10.67
2022-09-27T19:07:01.841Z,10.69
2022-09-27T19:09:31.297Z,10.68
2022-09-27T19:11:58.870Z,10.60
2022-09-27T19:14:26.882Z,10.61
2022-09-27T19:16:54.521Z,10.64
2022-09-27T19:19:22.180Z,10.68
2022-09-27T19:21:50.011Z,10.65
2022-09-27T19:24:18.820Z,10.66
2022-09-27T19:26:47.723Z,10.72
2022-09-27T19:29:15.388Z,10.63
2022-09-27T19:31:43.416Z,10.64
2022-09-27T19:34:11.654Z,10.60
2022-09-27T19:36:39.164Z,10.39
2022-09-27T19:39:06.708Z,10.31
2022-09-27T19:41:34.247Z,10.22
2022-09-27T19:44:03.290Z,10.08
2022-09-27T19:46:30.902Z,10.27
2022-09-27T19:48:58.709Z,10.44
2022-09-27T19:51:28.260Z,10.36
2022-09-27T19:53:56.819Z,10.42
2022-09-27T19:56:25.505Z,10.46
2022-09-27T19:58:53.533Z,10.33
2022-09-27T20:01:24.197Z,10.19
2022-09-27T20:03:53.522Z,10.32
2022-09-27T20:06:22.566Z,10.38
2022-09-27T20:08:50.679Z,10.48
2022-09-27T20:11:19.919Z,10.38
2022-09-27T20:13:48.064Z,10.31
2022-09-27T20:16:17.386Z,10.27
2022-09-27T20:18:48.346Z,9.97
2022-09-27T20:21:17.081Z,9.81
2022-09-27T20:23:45.489Z,10.06
2022-09-27T20:26:15.213Z,10.24
2022-09-27T20:28:44.775Z,10.24
2022-09-27T20:31:14.015Z,10.16
2022-09-27T20:33:49.710Z,10.04
2022-09-27T20:36:20.280Z,9.84
2022-09-27T20:38:49.196Z,10.07
2022-09-27T20:41:19.557Z,10.06
2022-09-27T20:43:47.855Z,10.09
2022-09-27T20:46:16.943Z,10.13
2022-09-27T20:48:45.463Z,10.23
2022-09-27T20:51:15.166Z,10.19
2022-09-27T20:53:45.585Z,10.20
2022-09-27T20:56:18.738Z,10.27
2022-09-27T20:58:47.045Z,10.29
2022-09-27T21:01:15.670Z,10.22
2022-09-27T21:03:43.209Z,10.21
2022-09-27T21:06:12.865Z,10.14
2022-09-27T21:08:41.617Z,10.23
2022-09-27T21:11:12.379Z,10.13
2022-09-27T21:13:41.137Z,9.93
2022-09-27T21:16:10.764Z,10.09
2022-09-27T21:18:38.896Z,10.11
2022-09-27T21:21:08.634Z,10.10
2022-09-27T21:23:42.018Z,10.11
2022-09-27T21:26:14.902Z,10.18
2022-09-27T21:28:44.333Z,10.17
2022-09-27T21:31:17.658Z,10.15
2022-09-27T21:33:49.037Z,10.05
2022-09-27T21:36:16.707Z,9.95
2022-09-27T21:38:44.358Z,9.94
2022-09-27T21:41:15.904Z,9.97
2022-09-27T21:43:44.737Z,10.01
2022-09-27T21:46:14.742Z,9.94
2022-09-27T21:48:43.977Z,9.84
2022-09-27T21:51:13.477Z,9.97
2022-09-27T21:53:43.748Z,10.02
2022-09-27T21:56:13.110Z,10.07
2022-09-27T21:58:42.607Z,10.06
2022-09-27T22:01:11.597Z,10.08
2022-09-27T22:03:40.191Z,10.01
2022-09-27T22:06:10.978Z,10.05
2022-09-27T22:08:39.202Z,9.98
2022-09-27T22:11:07.322Z,9.99
2022-09-27T22:13:37.123Z,9.99
2022-09-27T22:16:05.957Z,9.94
2022-09-27T22:18:37.273Z,9.99
2022-09-27T22:21:06.647Z,9.99
2022-09-27T22:23:34.277Z,9.89
2022-09-27T22:26:11.706Z,9.83
2022-09-27T22:28:41.271Z,9.92
2022-09-27T22:31:09.605Z,9.94
2022-09-27T22:33:37.168Z,9.96
2022-09-27T22:36:06.315Z,9.97
2022-09-27T22:38:34.126Z,9.91
2022-09-27T22:41:03.437Z,9.93
2022-09-27T22:43:31.866Z,9.89
2022-09-27T22:46:01.245Z,9.90
2022-09-27T22:48:29.202Z,9.90
2022-09-27T22:50:57.863Z,9.86
2022-09-27T22:53:25.798Z,9.77
2022-09-27T22:56:01.840Z,9.75
2022-09-27T22:58:31.882Z,9.61
2022-09-27T23:01:01.118Z,9.59
2022-09-27T23:03:28.811Z,9.70
2022-09-27T23:06:02.277Z,9.77
2022-09-27T23:08:30.071Z,9.74
2022-09-27T23:11:02.913Z,9.77
2022-09-27T23:13:32.084Z,9.78
2022-09-27T23:16:06.046Z,9.67
2022-09-27T23:18:33.809Z,9.70
2022-09-27T23:21:03.618Z,9.65
2022-09-27T23:23:32.096Z,9.65
2022-09-27T23:26:00.998Z,9.68
2022-09-27T23:28:29.617Z,9.68
2022-09-27T23:30:57.344Z,9.71
2022-09-27T23:33:27.875Z,9.70
2022-09-27T23:38:48.744Z,9.68
2022-09-27T23:41:17.288Z,9.68
2022-09-27T23:43:45.441Z,9.68
2022-09-27T23:46:13.666Z,9.70
2022-09-27T23:48:42.670Z,9.64
2022-09-27T23:51:11.916Z,9.66
2022-09-27T23:53:40.894Z,9.67
2022-09-27T23:56:11.754Z,9.68
2022-09-27T23:58:40.728Z,9.67
